sensor_id;sensor_type;location;lat;lon;timestamp;pressure;altitude;pressure_sealevel;temperature;humidity
11912;BME280;6016;41.928;25.556;2022-08-16T00:02:21;98420.94;;;27.07;50.12
11912;BME280;6016;41.928;25.556;2022-08-16T00:04:48;98422.03;;;27.06;49.94
11912;BME280;6016;41.928;25.556;2022-08-16T00:07:15;98388.59;;;26.85;50.11
11912;BME280;6016;41.928;25.556;2022-08-16T00:09:42;98427.44;;;27.06;49.88
11912;BME280;6016;41.928;25.556;2022-08-16T00:12:10;98427.97;;;27.03;50.10
11912;BME280;6016;41.928;25.556;2022-08-16T00:14:37;98426.88;;;27.04;49.55
11912;BME280;6016;41.928;25.556;2022-08-16T00:17:03;98430.66;;;26.93;50.34
11912;BME280;6016;41.928;25.556;2022-08-16T00:19:32;98375.81;;;26.60;49.85
11912;BME280;6016;41.928;25.556;2022-08-16T00:22:00;98438.47;;;26.94;49.53
11912;BME280;6016;41.928;25.556;2022-08-16T00:24:27;98433.63;;;26.96;50.01
11912;BME280;6016;41.928;25.556;2022-08-16T00:26:54;98442.03;;;26.95;50.04
11912;BME280;6016;41.928;25.556;2022-08-16T00:29:22;98399.66;;;26.73;49.44
11912;BME280;6016;41.928;25.556;2022-08-16T00:31:51;98432.28;;;26.94;49.59
11912;BME280;6016;41.928;25.556;2022-08-16T00:34:19;98429.81;;;26.92;49.42
11912;BME280;6016;41.928;25.556;2022-08-16T00:36:47;98380.91;;;26.56;50.13
11912;BME280;6016;41.928;25.556;2022-08-16T00:39:15;98405.06;;;26.68;49.48
11912;BME280;6016;41.928;25.556;2022-08-16T00:41:44;98449.56;;;26.88;49.95
11912;BME280;6016;41.928;25.556;2022-08-16T00:44:12;98450.84;;;26.85;49.63
11912;BME280;6016;41.928;25.556;2022-08-16T00:46:46;98435.94;;;26.72;49.59
11912;BME280;6016;41.928;25.556;2022-08-16T00:49:16;98463.78;;;26.73;50.05
11912;BME280;6016;41.928;25.556;2022-08-16T00:51:43;98446.13;;;26.60;50.44
11912;BME280;6016;41.928;25.556;2022-08-16T00:54:10;98466.50;;;26.73;50.23
11912;BME280;6016;41.928;25.556;2022-08-16T00:56:40;98448.06;;;26.69;50.14
11912;BME280;6016;41.928;25.556;2022-08-16T00:59:09;98467.91;;;26.80;50.04
11912;BME280;6016;41.928;25.556;2022-08-16T01:01:36;98473.03;;;26.82;50.12
11912;BME280;6016;41.928;25.556;2022-08-16T01:04:05;98471.97;;;26.83;49.78
11912;BME280;6016;41.928;25.556;2022-08-16T01:06:33;98477.91;;;26.80;50.33
11912;BME280;6016;41.928;25.556;2022-08-16T01:09:01;98458.59;;;26.66;50.25
11912;BME280;6016;41.928;25.556;2022-08-16T01:11:32;98478.69;;;26.75;50.24
11912;BME280;6016;41.928;25.556;2022-08-16T01:14:05;98477.91;;;26.80;50.68
11912;BME280;6016;41.928;25.556;2022-08-16T01:16:34;98451.78;;;26.53;50.13
11912;BME280;6016;41.928;25.556;2022-08-16T01:19:09;98481.69;;;26.79;50.54
11912;BME280;6016;41.928;25.556;2022-08-16T01:21:42;98488.19;;;26.78;50.17
11912;BME280;6016;41.928;25.556;2022-08-16T01:24:22;98495.22;;;26.79;50.45
11912;BME280;6016;41.928;25.556;2022-08-16T01:26:53;98263.06;;;25.31;50.52
11912;BME280;6016;41.928;25.556;2022-08-16T01:29:26;98483.31;;;26.75;50.68
11912;BME280;6016;41.928;25.556;2022-08-16T01:31:54;98475.44;;;26.73;50.44
11912;BME280;6016;41.928;25.556;2022-08-16T01:34:21;98456.13;;;26.59;50.61
11912;BME280;6016;41.928;25.556;2022-08-16T01:36:48;98474.88;;;26.71;50.99
11912;BME280;6016;41.928;25.556;2022-08-16T01:39:23;98477.03;;;26.69;50.75
11912;BME280;6016;41.928;25.556;2022-08-16T01:41:49;98479.44;;;26.65;50.88
11912;BME280;6016;41.928;25.556;2022-08-16T01:44:16;98487.28;;;26.62;50.98
11912;BME280;6016;41.928;25.556;2022-08-16T01:46:45;98441.91;;;26.31;51.29
11912;BME280;6016;41.928;25.556;2022-08-16T01:49:16;98478.59;;;26.54;51.49
11912;BME280;6016;41.928;25.556;2022-08-16T01:51:45;98480.16;;;26.50;51.41
11912;BME280;6016;41.928;25.556;2022-08-16T01:54:12;98477.97;;;26.47;51.48
11912;BME280;6016;41.928;25.556;2022-08-16T01:56:40;98473.66;;;26.51;51.65
11912;BME280;6016;41.928;25.556;2022-08-16T01:59:10;98472.34;;;26.54;51.20
11912;BME280;6016;41.928;25.556;2022-08-16T02:01:38;98480.47;;;26.59;51.07
11912;BME280;6016;41.928;25.556;2022-08-16T02:04:04;98455.25;;;26.48;51.24
11912;BME280;6016;41.928;25.556;2022-08-16T02:06:31;98487.50;;;26.60;50.95
11912;BME280;6016;41.928;25.556;2022-08-16T02:08:59;98486.69;;;26.54;51.17
11912;BME280;6016;41.928;25.556;2022-08-16T02:11:27;98486.97;;;26.58;51.41
11912;BME280;6016;41.928;25.556;2022-08-16T02:13:55;98485.88;;;26.54;51.08
11912;BME280;6016;41.928;25.556;2022-08-16T02:16:22;98485.88;;;26.54;51.14
11912;BME280;6016;41.928;25.556;2022-08-16T02:18:50;98477.72;;;26.49;51.07
11912;BME280;6016;41.928;25.556;2022-08-16T02:21:18;98482.63;;;26.57;51.30
11912;BME280;6016;41.928;25.556;2022-08-16T02:23:45;98472.31;;;26.49;50.68
11912;BME280;6016;41.928;25.556;2022-08-16T02:26:12;98436.34;;;26.16;50.64
11912;BME280;6016;41.928;25.556;2022-08-16T02:28:41;98496.38;;;26.45;51.04
11912;BME280;6016;41.928;25.556;2022-08-16T02:31:11;98505.81;;;26.48;50.78
11912;BME280;6016;41.928;25.556;2022-08-16T02:33:41;98497.94;;;26.41;51.30
11912;BME280;6016;41.928;25.556;2022-08-16T02:36:09;98494.31;;;26.25;50.75
11912;BME280;6016;41.928;25.556;2022-08-16T02:38:36;98481.38;;;26.32;50.82
11912;BME280;6016;41.928;25.556;2022-08-16T02:41:06;98480.31;;;26.33;50.87
11912;BME280;6016;41.928;25.556;2022-08-16T02:43:34;98468.84;;;26.21;50.96
11912;BME280;6016;41.928;25.556;2022-08-16T02:46:01;98488.56;;;26.49;51.16
11912;BME280;6016;41.928;25.556;2022-08-16T02:48:30;98485.03;;;26.48;50.77
11912;BME280;6016;41.928;25.556;2022-08-16T02:50:57;98427.69;;;26.13;50.79
11912;BME280;6016;41.928;25.556;2022-08-16T02:53:25;98489.91;;;26.51;51.12
11912;BME280;6016;41.928;25.556;2022-08-16T02:55:52;98482.63;;;26.52;51.18
11912;BME280;6016;41.928;25.556;2022-08-16T02:58:19;98480.22;;;26.56;51.53
11912;BME280;6016;41.928;25.556;2022-08-16T03:00:47;98476.88;;;26.43;51.25
11912;BME280;6016;41.928;25.556;2022-08-16T03:03:14;98438.56;;;26.19;51.38
11912;BME280;6016;41.928;25.556;2022-08-16T03:05:43;98447.59;;;26.30;51.57
11912;BME280;6016;41.928;25.556;2022-08-16T03:08:11;98482.06;;;26.50;51.78
11912;BME280;6016;41.928;25.556;2022-08-16T03:10:38;98502.63;;;26.51;51.84
11912;BME280;6016;41.928;25.556;2022-08-16T03:13:05;98472.13;;;26.23;52.14
11912;BME280;6016;41.928;25.556;2022-08-16T03:15:32;98457.72;;;26.17;51.88
11912;BME280;6016;41.928;25.556;2022-08-16T03:17:59;98513.94;;;26.48;51.89
11912;BME280;6016;41.928;25.556;2022-08-16T03:20:27;98513.88;;;26.37;52.05
11912;BME280;6016;41.928;25.556;2022-08-16T03:22:55;98503.00;;;26.32;51.73
11912;BME280;6016;41.928;25.556;2022-08-16T03:25:22;98055.97;;;23.46;51.44
11912;BME280;6016;41.928;25.556;2022-08-16T03:27:50;98545.00;;;26.40;51.70
11912;BME280;6016;41.928;25.556;2022-08-16T03:30:19;98535.31;;;26.44;52.03
11912;BME280;6016;41.928;25.556;2022-08-16T03:32:48;98488.28;;;26.18;51.61
11912;BME280;6016;41.928;25.556;2022-08-16T03:35:16;98524.88;;;26.25;52.09
11912;BME280;6016;41.928;25.556;2022-08-16T03:37:44;98485.22;;;26.09;51.83
11912;BME280;6016;41.928;25.556;2022-08-16T03:40:14;98531.69;;;26.33;51.83
11912;BME280;6016;41.928;25.556;2022-08-16T03:42:41;98526.03;;;26.35;51.64
11912;BME280;6016;41.928;25.556;2022-08-16T03:45:09;98513.69;;;26.17;51.64
11912;BME280;6016;41.928;25.556;2022-08-16T03:47:35;98440.25;;;25.65;51.74
11912;BME280;6016;41.928;25.556;2022-08-16T03:50:04;98442.66;;;25.61;51.48
11912;BME280;6016;41.928;25.556;2022-08-16T03:52:32;98534.47;;;26.16;51.52
11912;BME280;6016;41.928;25.556;2022-08-16T03:55:00;98477.03;;;25.71;50.76
11912;BME280;6016;41.928;25.556;2022-08-16T03:57:28;98477.75;;;25.89;50.79
11912;BME280;6016;41.928;25.556;2022-08-16T03:59:56;98544.94;;;26.30;50.59
11912;BME280;6016;41.928;25.556;2022-08-16T04:02:23;98547.91;;;26.33;49.96
11912;BME280;6016;41.928;25.556;2022-08-16T04:04:50;98513.94;;;26.15;50.13
11912;BME280;6016;41.928;25.556;2022-08-16T04:07:18;98538.06;;;26.22;50.60
11912;BME280;6016;41.928;25.556;2022-08-16T04:09:45;98505.13;;;25.97;51.07
11912;BME280;6016;41.928;25.556;2022-08-16T04:12:12;98548.28;;;26.15;51.16
11912;BME280;6016;41.928;25.556;2022-08-16T04:14:40;98542.13;;;26.19;50.93
11912;BME280;6016;41.928;25.556;2022-08-16T04:17:07;98549.47;;;26.24;50.90
11912;BME280;6016;41.928;25.556;2022-08-16T04:19:34;98545.72;;;26.30;50.68
11912;BME280;6016;41.928;25.556;2022-08-16T04:22:01;98549.25;;;26.31;50.81
11912;BME280;6016;41.928;25.556;2022-08-16T04:24:28;98545.69;;;26.25;51.24
11912;BME280;6016;41.928;25.556;2022-08-16T04:26:55;98493.16;;;25.88;51.01
11912;BME280;6016;41.928;25.556;2022-08-16T04:29:22;98530.84;;;26.00;51.60
11912;BME280;6016;41.928;25.556;2022-08-16T04:31:50;98486.97;;;25.65;51.41
11912;BME280;6016;41.928;25.556;2022-08-16T04:34:18;98548.47;;;25.80;52.13
11912;BME280;6016;41.928;25.556;2022-08-16T04:36:46;98505.47;;;25.51;52.34
11912;BME280;6016;41.928;25.556;2022-08-16T04:39:13;98491.81;;;25.41;52.18
11912;BME280;6016;41.928;25.556;2022-08-16T04:41:40;98538.28;;;25.88;52.25
11912;BME280;6016;41.928;25.556;2022-08-16T04:44:07;98504.88;;;25.72;52.02
11912;BME280;6016;41.928;25.556;2022-08-16T04:46:34;98535.06;;;25.91;52.10
11912;BME280;6016;41.928;25.556;2022-08-16T04:49:02;98535.72;;;26.03;51.63
11912;BME280;6016;41.928;25.556;2022-08-16T04:51:29;98526.03;;;26.07;51.91
11912;BME280;6016;41.928;25.556;2022-08-16T04:53:56;98533.66;;;26.10;51.67
11912;BME280;6016;41.928;25.556;2022-08-16T04:56:23;98528.94;;;26.01;51.83
11912;BME280;6016;41.928;25.556;2022-08-16T04:58:50;98519.66;;;26.19;52.15
11912;BME280;6016;41.928;25.556;2022-08-16T05:01:17;98522.38;;;26.19;51.79
11912;BME280;6016;41.928;25.556;2022-08-16T05:03:45;98425.38;;;25.62;52.02
11912;BME280;6016;41.928;25.556;2022-08-16T05:06:13;98515.91;;;26.20;52.13
11912;BME280;6016;41.928;25.556;2022-08-16T05:08:40;98523.00;;;26.26;52.24
11912;BME280;6016;41.928;25.556;2022-08-16T05:11:09;98533.03;;;26.31;52.25
11912;BME280;6016;41.928;25.556;2022-08-16T05:13:38;98528.72;;;26.35;51.96
11912;BME280;6016;41.928;25.556;2022-08-16T05:16:06;98529.53;;;26.35;52.37
11912;BME280;6016;41.928;25.556;2022-08-16T05:18:34;98529.28;;;26.37;52.43
11912;BME280;6016;41.928;25.556;2022-08-16T05:21:02;98529.03;;;26.38;52.00
11912;BME280;6016;41.928;25.556;2022-08-16T05:23:30;98524.41;;;26.34;52.69
11912;BME280;6016;41.928;25.556;2022-08-16T05:25:57;98533.31;;;26.34;52.57
11912;BME280;6016;41.928;25.556;2022-08-16T05:28:25;98525.25;;;26.39;52.06
11912;BME280;6016;41.928;25.556;2022-08-16T05:30:52;98523.41;;;26.45;52.31
11912;BME280;6016;41.928;25.556;2022-08-16T05:33:19;98485.56;;;26.18;52.25
11912;BME280;6016;41.928;25.556;2022-08-16T05:35:47;98529.13;;;26.49;51.98
11912;BME280;6016;41.928;25.556;2022-08-16T05:38:14;98450.03;;;26.04;52.08
11912;BME280;6016;41.928;25.556;2022-08-16T05:40:43;98532.72;;;26.60;51.84
11912;BME280;6016;41.928;25.556;2022-08-16T05:43:10;98533.25;;;26.62;52.29
11912;BME280;6016;41.928;25.556;2022-08-16T05:45:37;98486.72;;;26.22;51.98
11912;BME280;6016;41.928;25.556;2022-08-16T05:48:04;98537.03;;;26.61;52.23
11912;BME280;6016;41.928;25.556;2022-08-16T05:50:33;98543.84;;;26.63;52.16
11912;BME280;6016;41.928;25.556;2022-08-16T05:52:59;98543.31;;;26.66;52.10
11912;BME280;6016;41.928;25.556;2022-08-16T05:55:26;98510.69;;;26.46;52.04
11912;BME280;6016;41.928;25.556;2022-08-16T05:57:57;98549.03;;;26.75;52.82
11912;BME280;6016;41.928;25.556;2022-08-16T06:00:24;98544.47;;;26.76;52.29
11912;BME280;6016;41.928;25.556;2022-08-16T06:02:51;98550.16;;;26.79;52.33
11912;BME280;6016;41.928;25.556;2022-08-16T06:05:19;98539.31;;;26.79;52.75
11912;BME280;6016;41.928;25.556;2022-08-16T06:07:46;98526.91;;;26.83;52.35
11912;BME280;6016;41.928;25.556;2022-08-16T06:10:13;98450.84;;;26.32;52.27
11912;BME280;6016;41.928;25.556;2022-08-16T06:12:40;98535.09;;;26.89;52.38
11912;BME280;6016;41.928;25.556;2022-08-16T06:15:13;98473.38;;;26.48;52.15
11912;BME280;6016;41.928;25.556;2022-08-16T06:17:40;98532.94;;;26.91;52.20
11912;BME280;6016;41.928;25.556;2022-08-16T06:20:14;98491.91;;;26.66;51.61
11912;BME280;6016;41.928;25.556;2022-08-16T06:22:41;98537.84;;;26.99;51.77
11912;BME280;6016;41.928;25.556;2022-08-16T06:25:10;98547.06;;;26.98;51.14
11912;BME280;6016;41.928;25.556;2022-08-16T06:27:37;98446.31;;;26.43;51.46
11912;BME280;6016;41.928;25.556;2022-08-16T06:30:05;98502.81;;;26.82;51.60
11912;BME280;6016;41.928;25.556;2022-08-16T06:32:37;98544.72;;;27.12;51.28
11912;BME280;6016;41.928;25.556;2022-08-16T06:35:05;98542.53;;;27.14;51.02
11912;BME280;6016;41.928;25.556;2022-08-16T06:37:32;98454.56;;;26.63;51.07
11912;BME280;6016;41.928;25.556;2022-08-16T06:39:59;98542.03;;;27.22;50.99
11912;BME280;6016;41.928;25.556;2022-08-16T06:42:26;98526.91;;;27.27;51.16
11912;BME280;6016;41.928;25.556;2022-08-16T06:44:53;98523.66;;;27.24;50.43
11912;BME280;6016;41.928;25.556;2022-08-16T06:47:19;98518.78;;;27.27;51.25
11912;BME280;6016;41.928;25.556;2022-08-16T06:49:48;98518.25;;;27.30;50.57
11912;BME280;6016;41.928;25.556;2022-08-16T06:52:14;98525.56;;;27.34;50.81
11912;BME280;6016;41.928;25.556;2022-08-16T06:54:41;98522.31;;;27.37;50.58
11912;BME280;6016;41.928;25.556;2022-08-16T06:57:08;98517.19;;;27.41;51.15
11912;BME280;6016;41.928;25.556;2022-08-16T06:59:36;98482.44;;;27.17;50.58
11912;BME280;6016;41.928;25.556;2022-08-16T07:02:03;98521.28;;;27.49;50.65
11912;BME280;6016;41.928;25.556;2022-08-16T07:04:30;98522.38;;;27.48;50.47
11912;BME280;6016;41.928;25.556;2022-08-16T07:06:58;98382.59;;;26.67;50.41
11912;BME280;6016;41.928;25.556;2022-08-16T07:09:25;98455.84;;;27.04;50.16
11912;BME280;6016;41.928;25.556;2022-08-16T07:11:56;98525.69;;;27.65;50.11
11912;BME280;6016;41.928;25.556;2022-08-16T07:14:23;98518.13;;;27.73;49.73
11912;BME280;6016;41.928;25.556;2022-08-16T07:16:50;98532.22;;;27.80;50.32
11912;BME280;6016;41.928;25.556;2022-08-16T07:19:17;98485.03;;;27.65;49.96
11912;BME280;6016;41.928;25.556;2022-08-16T07:21:44;98518.44;;;27.97;49.42
11912;BME280;6016;41.928;25.556;2022-08-16T07:24:12;98526.03;;;28.05;49.44
11912;BME280;6016;41.928;25.556;2022-08-16T07:26:41;98520.63;;;28.11;49.45
11912;BME280;6016;41.928;25.556;2022-08-16T07:29:08;98517.38;;;28.08;49.70
11912;BME280;6016;41.928;25.556;2022-08-16T07:31:35;98520.13;;;28.19;49.24
11912;BME280;6016;41.928;25.556;2022-08-16T07:34:04;98515.50;;;28.25;48.49
11912;BME280;6016;41.928;25.556;2022-08-16T07:36:30;98515.50;;;28.35;48.27
11912;BME280;6016;41.928;25.556;2022-08-16T07:38:57;98521.22;;;28.39;48.49
11912;BME280;6016;41.928;25.556;2022-08-16T07:41:25;98387.47;;;27.55;48.02
11912;BME280;6016;41.928;25.556;2022-08-16T07:43:53;98525.81;;;28.43;47.56
11912;BME280;6016;41.928;25.556;2022-08-16T07:46:20;98524.44;;;28.56;47.58
11912;BME280;6016;41.928;25.556;2022-08-16T07:48:47;98090.19;;;25.64;47.34
11912;BME280;6016;41.928;25.556;2022-08-16T07:51:14;98523.06;;;28.74;46.60
11912;BME280;6016;41.928;25.556;2022-08-16T07:53:40;98522.53;;;28.83;46.00
11912;BME280;6016;41.928;25.556;2022-08-16T07:56:09;98471.47;;;28.69;45.83
11912;BME280;6016;41.928;25.556;2022-08-16T07:58:38;98506.75;;;29.00;46.10
11912;BME280;6016;41.928;25.556;2022-08-16T08:01:05;98506.19;;;29.03;45.28
11912;BME280;6016;41.928;25.556;2022-08-16T08:03:32;98411.53;;;28.60;45.67
11912;BME280;6016;41.928;25.556;2022-08-16T08:05:59;98474.94;;;29.01;45.49
11912;BME280;6016;41.928;25.556;2022-08-16T08:08:27;98509.84;;;29.44;45.15
11912;BME280;6016;41.928;25.556;2022-08-16T08:10:58;98511.47;;;29.40;42.39
11912;BME280;6016;41.928;25.556;2022-08-16T08:13:38;98510.63;;;29.55;43.38
11912;BME280;6016;41.928;25.556;2022-08-16T08:16:05;98505.13;;;29.65;42.40
11912;BME280;6016;41.928;25.556;2022-08-16T08:18:34;98506.66;;;29.76;43.04
11912;BME280;6016;41.928;25.556;2022-08-16T08:21:01;98505.28;;;29.79;42.04
11912;BME280;6016;41.928;25.556;2022-08-16T08:23:29;98503.59;;;29.88;42.68
11912;BME280;6016;41.928;25.556;2022-08-16T08:25:57;98503.59;;;29.88;42.45
11912;BME280;6016;41.928;25.556;2022-08-16T08:28:24;98494.94;;;29.86;42.10
11912;BME280;6016;41.928;25.556;2022-08-16T08:30:52;98500.28;;;29.97;42.13
11912;BME280;6016;41.928;25.556;2022-08-16T08:33:19;98494.56;;;29.98;40.60
11912;BME280;6016;41.928;25.556;2022-08-16T08:35:46;98491.84;;;30.03;40.42
11912;BME280;6016;41.928;25.556;2022-08-16T08:38:12;98447.16;;;29.75;41.13
11912;BME280;6016;41.928;25.556;2022-08-16T08:40:41;98515.91;;;30.21;40.16
11912;BME280;6016;41.928;25.556;2022-08-16T08:43:15;98493.53;;;30.29;40.58
11912;BME280;6016;41.928;25.556;2022-08-16T08:45:41;98489.38;;;30.37;40.15
11912;BME280;6016;41.928;25.556;2022-08-16T08:48:11;98487.75;;;30.36;40.92
11912;BME280;6016;41.928;25.556;2022-08-16T08:50:38;98488.09;;;30.58;40.34
11912;BME280;6016;41.928;25.556;2022-08-16T08:53:05;98459.41;;;30.42;40.61
11912;BME280;6016;41.928;25.556;2022-08-16T08:55:32;98484.72;;;30.72;39.74
11912;BME280;6016;41.928;25.556;2022-08-16T08:57:59;98487.31;;;30.82;39.88
11912;BME280;6016;41.928;25.556;2022-08-16T09:00:26;98403.88;;;30.43;39.91
11912;BME280;6016;41.928;25.556;2022-08-16T09:02:54;98488.25;;;30.97;38.35
11912;BME280;6016;41.928;25.556;2022-08-16T09:05:23;98484.41;;;30.98;37.72
11912;BME280;6016;41.928;25.556;2022-08-16T09:07:53;98480.41;;;31.14;38.77
11912;BME280;6016;41.928;25.556;2022-08-16T09:10:20;98345.44;;;30.35;38.28
11912;BME280;6016;41.928;25.556;2022-08-16T09:12:48;98189.31;;;29.58;38.05
11912;BME280;6016;41.928;25.556;2022-08-16T09:15:15;98487.09;;;31.47;37.93
11912;BME280;6016;41.928;25.556;2022-08-16T09:17:42;98474.94;;;31.39;37.58
11912;BME280;6016;41.928;25.556;2022-08-16T09:20:13;98314.97;;;30.57;38.50
11912;BME280;6016;41.928;25.556;2022-08-16T09:22:41;98473.38;;;31.52;38.72
11912;BME280;6016;41.928;25.556;2022-08-16T09:25:13;98402.19;;;31.15;38.62
11912;BME280;6016;41.928;25.556;2022-08-16T09:27:41;98477.00;;;31.66;37.49
11912;BME280;6016;41.928;25.556;2022-08-16T09:30:15;98441.00;;;31.50;36.18
11912;BME280;6016;41.928;25.556;2022-08-16T09:32:42;98478.22;;;31.79;37.19
11912;BME280;6016;41.928;25.556;2022-08-16T09:35:10;97883.31;;;28.21;37.20
11912;BME280;6016;41.928;25.556;2022-08-16T09:37:37;98475.81;;;32.11;37.11
11912;BME280;6016;41.928;25.556;2022-08-16T09:40:07;98480.53;;;32.05;37.06
11912;BME280;6016;41.928;25.556;2022-08-16T09:42:36;98475.84;;;32.25;36.91
11912;BME280;6016;41.928;25.556;2022-08-16T09:45:04;98476.50;;;32.36;37.23
11912;BME280;6016;41.928;25.556;2022-08-16T09:47:31;98471.59;;;32.52;35.59
11912;BME280;6016;41.928;25.556;2022-08-16T09:49:58;98471.19;;;32.59;35.90
11912;BME280;6016;41.928;25.556;2022-08-16T09:52:28;98458.63;;;32.58;36.03
11912;BME280;6016;41.928;25.556;2022-08-16T09:54:54;98333.34;;;31.81;35.63
11912;BME280;6016;41.928;25.556;2022-08-16T09:57:23;98337.31;;;32.03;36.05
11912;BME280;6016;41.928;25.556;2022-08-16T09:59:52;98466.34;;;32.97;35.92
11912;BME280;6016;41.928;25.556;2022-08-16T10:02:18;98384.41;;;32.55;35.27
11912;BME280;6016;41.928;25.556;2022-08-16T10:04:45;98442.44;;;33.03;34.91
11912;BME280;6016;41.928;25.556;2022-08-16T10:07:15;98454.00;;;33.00;34.42
11912;BME280;6016;41.928;25.556;2022-08-16T10:09:42;98467.03;;;33.03;32.70
11912;BME280;6016;41.928;25.556;2022-08-16T10:12:09;98467.53;;;33.05;33.17
11912;BME280;6016;41.928;25.556;2022-08-16T10:14:55;98458.34;;;33.15;33.80
11912;BME280;6016;41.928;25.556;2022-08-16T10:17:22;98462.91;;;33.20;33.84
11912;BME280;6016;41.928;25.556;2022-08-16T10:19:50;98464.00;;;33.19;32.68
11912;BME280;6016;41.928;25.556;2022-08-16T10:22:19;98435.78;;;33.09;32.83
11912;BME280;6016;41.928;25.556;2022-08-16T10:24:46;98394.19;;;32.84;33.08
11912;BME280;6016;41.928;25.556;2022-08-16T10:27:13;98452.25;;;33.32;32.42
11912;BME280;6016;41.928;25.556;2022-08-16T10:29:40;98454.34;;;33.35;33.44
11912;BME280;6016;41.928;25.556;2022-08-16T10:32:10;98456.59;;;33.33;31.92
11912;BME280;6016;41.928;25.556;2022-08-16T10:34:37;98394.19;;;32.84;32.11
11912;BME280;6016;41.928;25.556;2022-08-16T10:37:04;98452.66;;;33.25;32.12
11912;BME280;6016;41.928;25.556;2022-08-16T10:39:33;98450.09;;;33.29;32.68
11912;BME280;6016;41.928;25.556;2022-08-16T10:42:00;98252.56;;;31.99;32.94
11912;BME280;6016;41.928;25.556;2022-08-16T10:44:27;98449.69;;;33.36;32.29
11912;BME280;6016;41.928;25.556;2022-08-16T10:46:54;98251.41;;;32.14;30.96
11912;BME280;6016;41.928;25.556;2022-08-16T10:49:29;98360.09;;;32.82;31.78
11912;BME280;6016;41.928;25.556;2022-08-16T10:51:56;98427.22;;;33.39;31.69
11912;BME280;6016;41.928;25.556;2022-08-16T10:54:23;98432.06;;;33.42;31.14
11912;BME280;6016;41.928;25.556;2022-08-16T10:56:50;98437.53;;;33.42;31.84
11912;BME280;6016;41.928;25.556;2022-08-16T10:59:21;98412.88;;;33.19;33.06
11912;BME280;6016;41.928;25.556;2022-08-16T11:01:50;98433.16;;;33.41;31.52
11912;BME280;6016;41.928;25.556;2022-08-16T11:04:17;98407.66;;;33.32;30.41
11912;BME280;6016;41.928;25.556;2022-08-16T11:06:45;98431.91;;;33.61;31.79
11912;BME280;6016;41.928;25.556;2022-08-16T11:09:12;98423.66;;;33.52;31.34
11912;BME280;6016;41.928;25.556;2022-08-16T11:11:39;98418.38;;;33.42;30.67
11912;BME280;6016;41.928;25.556;2022-08-16T11:14:08;98425.25;;;33.39;30.68
11912;BME280;6016;41.928;25.556;2022-08-16T11:16:37;98349.25;;;33.05;30.58
11912;BME280;6016;41.928;25.556;2022-08-16T11:19:06;98412.13;;;33.64;30.00
11912;BME280;6016;41.928;25.556;2022-08-16T11:21:58;98407.91;;;33.81;31.25
11912;BME280;6016;41.928;25.556;2022-08-16T11:24:34;98396.06;;;33.63;30.89
11912;BME280;6016;41.928;25.556;2022-08-16T11:27:04;98403.69;;;33.75;30.27
11912;BME280;6016;41.928;25.556;2022-08-16T11:29:32;98416.97;;;33.90;30.84
11912;BME280;6016;41.928;25.556;2022-08-16T11:32:00;98400.03;;;34.02;31.27
11912;BME280;6016;41.928;25.556;2022-08-16T11:34:29;98384.13;;;33.90;31.12
11912;BME280;6016;41.928;25.556;2022-08-16T11:36:58;98403.78;;;34.15;30.14
11912;BME280;6016;41.928;25.556;2022-08-16T11:39:29;98333.53;;;33.79;30.03
11912;BME280;6016;41.928;25.556;2022-08-16T11:41:56;98407.88;;;34.27;30.50
11912;BME280;6016;41.928;25.556;2022-08-16T11:44:26;98384.78;;;34.10;31.19
11912;BME280;6016;41.928;25.556;2022-08-16T11:46:53;98406.72;;;34.19;30.71
11912;BME280;6016;41.928;25.556;2022-08-16T11:49:20;98403.78;;;34.15;30.67
11912;BME280;6016;41.928;25.556;2022-08-16T11:51:46;98394.63;;;34.20;30.25
11912;BME280;6016;41.928;25.556;2022-08-16T11:54:18;98404.47;;;34.21;30.76
11912;BME280;6016;41.928;25.556;2022-08-16T11:56:47;98409.16;;;33.98;29.79
11912;BME280;6016;41.928;25.556;2022-08-16T11:59:14;98409.59;;;33.68;30.82
11912;BME280;6016;41.928;25.556;2022-08-16T12:01:43;98404.81;;;33.51;30.76
11912;BME280;6016;41.928;25.556;2022-08-16T12:04:10;98390.63;;;33.49;30.74
11912;BME280;6016;41.928;25.556;2022-08-16T12:06:37;98404.63;;;33.33;31.94
11912;BME280;6016;41.928;25.556;2022-08-16T12:09:06;98343.88;;;32.86;31.39
11912;BME280;6016;41.928;25.556;2022-08-16T12:11:35;98397.28;;;33.20;31.73
11912;BME280;6016;41.928;25.556;2022-08-16T12:14:05;98395.97;;;33.17;31.35
11912;BME280;6016;41.928;25.556;2022-08-16T12:16:32;98394.03;;;33.18;31.63
11912;BME280;6016;41.928;25.556;2022-08-16T12:19:00;98386.59;;;33.09;30.66
11912;BME280;6016;41.928;25.556;2022-08-16T12:21:27;98326.81;;;32.66;30.98
11912;BME280;6016;41.928;25.556;2022-08-16T12:23:53;98389.88;;;33.20;32.11
11912;BME280;6016;41.928;25.556;2022-08-16T12:26:20;98379.09;;;33.38;31.77
11912;BME280;6016;41.928;25.556;2022-08-16T12:28:52;98373.13;;;33.36;32.27
11912;BME280;6016;41.928;25.556;2022-08-16T12:31:19;98369.97;;;33.20;32.68
11912;BME280;6016;41.928;25.556;2022-08-16T12:33:49;98372.78;;;33.15;33.18
11912;BME280;6016;41.928;25.556;2022-08-16T12:36:17;98379.56;;;33.17;31.99
11912;BME280;6016;41.928;25.556;2022-08-16T12:38:47;98340.75;;;33.06;31.76
11912;BME280;6016;41.928;25.556;2022-08-16T12:41:15;98345.03;;;33.21;32.30
11912;BME280;6016;41.928;25.556;2022-08-16T12:43:49;98373.09;;;33.50;31.05
11912;BME280;6016;41.928;25.556;2022-08-16T12:46:20;98370.47;;;33.67;30.56
11912;BME280;6016;41.928;25.556;2022-08-16T12:48:47;98361.72;;;33.79;30.80
11912;BME280;6016;41.928;25.556;2022-08-16T12:51:28;98357.47;;;33.73;30.87
11912;BME280;6016;41.928;25.556;2022-08-16T12:54:00;98361.56;;;33.85;30.55
11912;BME280;6016;41.928;25.556;2022-08-16T12:56:31;98358.56;;;33.95;30.51
11912;BME280;6016;41.928;25.556;2022-08-16T12:59:05;98260.78;;;33.46;30.32
11912;BME280;6016;41.928;25.556;2022-08-16T13:01:36;98360.44;;;33.86;31.10
11912;BME280;6016;41.928;25.556;2022-08-16T13:04:05;98356.94;;;33.62;30.94
11912;BME280;6016;41.928;25.556;2022-08-16T13:06:34;98355.06;;;33.49;31.75